sensor_id;sensor_type;location;lat;lon;timestamp;temperature;humidity
37782;DHT22;23621;50.878;4.584;2023-04-05T00:00:40;11.10;54.30
37782;DHT22;23621;50.878;4.584;2023-04-05T00:03:10;11.00;54.40
37782;DHT22;23621;50.878;4.584;2023-04-05T00:05:38;11.00;54.50
37782;DHT22;23621;50.878;4.584;2023-04-05T00:08:05;11.00;54.50
37782;DHT22;23621;50.878;4.584;2023-04-05T00:10:39;11.00;54.60
37782;DHT22;23621;50.878;4.584;2023-04-05T00:13:12;10.90;54.60
37782;DHT22;23621;50.878;4.584;2023-04-05T00:15:39;10.90;54.60
37782;DHT22;23621;50.878;4.584;2023-04-05T00:18:06;10.90;54.60
37782;DHT22;23621;50.878;4.584;2023-04-05T00:20:33;10.80;54.60
37782;DHT22;23621;50.878;4.584;2023-04-05T00:23:03;10.80;54.70
37782;DHT22;23621;50.878;4.584;2023-04-05T00:25:32;10.70;54.60
37782;DHT22;23621;50.878;4.584;2023-04-05T00:28:00;10.70;54.60
37782;DHT22;23621;50.878;4.584;2023-04-05T00:30:27;10.70;54.70
37782;DHT22;23621;50.878;4.584;2023-04-05T00:32:54;10.60;54.70
37782;DHT22;23621;50.878;4.584;2023-04-05T00:35:21;10.60;54.70
37782;DHT22;23621;50.878;4.584;2023-04-05T00:37:48;10.60;54.80
37782;DHT22;23621;50.878;4.584;2023-04-05T00:40:15;10.60;54.90
37782;DHT22;23621;50.878;4.584;2023-04-05T00:42:45;10.60;55.00
37782;DHT22;23621;50.878;4.584;2023-04-05T00:45:13;10.50;54.90
37782;DHT22;23621;50.878;4.584;2023-04-05T00:47:41;10.50;55.00
37782;DHT22;23621;50.878;4.584;2023-04-05T00:50:08;10.50;55.10
37782;DHT22;23621;50.878;4.584;2023-04-05T00:52:37;10.50;55.10
37782;DHT22;23621;50.878;4.584;2023-04-05T00:58:10;10.50;55.00
37782;DHT22;23621;50.878;4.584;2023-04-05T01:00:38;10.50;54.90
37782;DHT22;23621;50.878;4.584;2023-04-05T01:03:31;10.50;54.80
37782;DHT22;23621;50.878;4.584;2023-04-05T01:06:12;10.50;54.80
37782;DHT22;23621;50.878;4.584;2023-04-05T01:11:37;10.40;54.70
37782;DHT22;23621;50.878;4.584;2023-04-05T01:14:05;10.40;54.80
37782;DHT22;23621;50.878;4.584;2023-04-05T01:16:32;10.30;54.60
37782;DHT22;23621;50.878;4.584;2023-04-05T01:18:59;10.30;54.60
37782;DHT22;23621;50.878;4.584;2023-04-05T01:21:38;10.30;54.70
37782;DHT22;23621;50.878;4.584;2023-04-05T01:24:30;10.30;54.80
37782;DHT22;23621;50.878;4.584;2023-04-05T01:29:42;10.20;54.80
37782;DHT22;23621;50.878;4.584;2023-04-05T01:32:17;10.20;55.00
37782;DHT22;23621;50.878;4.584;2023-04-05T01:35:04;10.10;54.90
37782;DHT22;23621;50.878;4.584;2023-04-05T01:37:37;10.10;54.90
37782;DHT22;23621;50.878;4.584;2023-04-05T01:40:05;10.10;54.90
37782;DHT22;23621;50.878;4.584;2023-04-05T01:42:32;10.10;55.00
37782;DHT22;23621;50.878;4.584;2023-04-05T01:44:59;10.10;55.00
37782;DHT22;23621;50.878;4.584;2023-04-05T01:47:26;10.10;55.10
37782;DHT22;23621;50.878;4.584;2023-04-05T01:49:53;10.10;55.10
37782;DHT22;23621;50.878;4.584;2023-04-05T01:52:20;10.00;55.00
37782;DHT22;23621;50.878;4.584;2023-04-05T01:54:47;10.10;55.20
37782;DHT22;23621;50.878;4.584;2023-04-05T01:57:14;10.10;55.20
37782;DHT22;23621;50.878;4.584;2023-04-05T01:59:41;10.00;55.10
37782;DHT22;23621;50.878;4.584;2023-04-05T02:02:07;10.00;55.10
37782;DHT22;23621;50.878;4.584;2023-04-05T02:04:34;10.00;55.10
37782;DHT22;23621;50.878;4.584;2023-04-05T02:07:01;10.00;55.20
37782;DHT22;23621;50.878;4.584;2023-04-05T02:09:29;9.90;56.00
37782;DHT22;23621;50.878;4.584;2023-04-05T02:11:56;9.90;56.10
37782;DHT22;23621;50.878;4.584;2023-04-05T02:14:23;9.90;56.20
37782;DHT22;23621;50.878;4.584;2023-04-05T02:16:51;9.80;56.20
37782;DHT22;23621;50.878;4.584;2023-04-05T02:19:22;9.80;56.30
37782;DHT22;23621;50.878;4.584;2023-04-05T02:21:49;9.80;56.30
37782;DHT22;23621;50.878;4.584;2023-04-05T02:24:18;9.80;56.30
37782;DHT22;23621;50.878;4.584;2023-04-05T02:26:46;9.80;56.30
37782;DHT22;23621;50.878;4.584;2023-04-05T02:29:13;9.80;56.30
37782;DHT22;23621;50.878;4.584;2023-04-05T02:31:39;9.80;56.20
37782;DHT22;23621;50.878;4.584;2023-04-05T02:34:07;9.80;56.30
37782;DHT22;23621;50.878;4.584;2023-04-05T02:36:37;9.80;56.30
37782;DHT22;23621;50.878;4.584;2023-04-05T02:39:04;9.80;56.30
37782;DHT22;23621;50.878;4.584;2023-04-05T02:41:31;9.80;56.90
37782;DHT22;23621;50.878;4.584;2023-04-05T02:43:58;9.80;56.20
37782;DHT22;23621;50.878;4.584;2023-04-05T02:46:25;9.70;56.10
37782;DHT22;23621;50.878;4.584;2023-04-05T02:48:52;9.70;56.10
37782;DHT22;23621;50.878;4.584;2023-04-05T02:51:19;9.70;56.10
37782;DHT22;23621;50.878;4.584;2023-04-05T02:53:46;9.60;56.20
37782;DHT22;23621;50.878;4.584;2023-04-05T02:56:13;9.60;56.20
37782;DHT22;23621;50.878;4.584;2023-04-05T02:58:41;9.60;56.20
37782;DHT22;23621;50.878;4.584;2023-04-05T03:01:08;9.60;56.20
37782;DHT22;23621;50.878;4.584;2023-04-05T03:03:35;9.60;56.30
37782;DHT22;23621;50.878;4.584;2023-04-05T03:06:04;9.60;56.30
37782;DHT22;23621;50.878;4.584;2023-04-05T03:08:37;9.60;56.40
37782;DHT22;23621;50.878;4.584;2023-04-05T03:11:05;9.50;56.30
37782;DHT22;23621;50.878;4.584;2023-04-05T03:13:32;9.50;56.30
37782;DHT22;23621;50.878;4.584;2023-04-05T03:16:03;9.50;56.40
37782;DHT22;23621;50.878;4.584;2023-04-05T03:18:34;9.50;56.50
37782;DHT22;23621;50.878;4.584;2023-04-05T03:21:01;9.40;56.40
37782;DHT22;23621;50.878;4.584;2023-04-05T03:23:31;9.40;56.50
37782;DHT22;23621;50.878;4.584;2023-04-05T03:26:24;9.40;56.60
37782;DHT22;23621;50.878;4.584;2023-04-05T03:28:54;9.30;56.60
37782;DHT22;23621;50.878;4.584;2023-04-05T03:31:21;9.30;56.60
37782;DHT22;23621;50.878;4.584;2023-04-05T03:33:48;9.30;56.50
37782;DHT22;23621;50.878;4.584;2023-04-05T03:36:16;9.30;56.60
37782;DHT22;23621;50.878;4.584;2023-04-05T03:38:46;9.30;56.70
37782;DHT22;23621;50.878;4.584;2023-04-05T03:41:16;9.20;56.50
37782;DHT22;23621;50.878;4.584;2023-04-05T03:43:48;9.20;56.50
37782;DHT22;23621;50.878;4.584;2023-04-05T03:46:36;9.20;56.70
37782;DHT22;23621;50.878;4.584;2023-04-05T03:49:16;9.20;56.70
37782;DHT22;23621;50.878;4.584;2023-04-05T03:51:43;9.20;56.60
37782;DHT22;23621;50.878;4.584;2023-04-05T03:54:10;9.20;56.50
37782;DHT22;23621;50.878;4.584;2023-04-05T03:56:38;9.20;56.60
37782;DHT22;23621;50.878;4.584;2023-04-05T03:59:05;9.20;56.60
37782;DHT22;23621;50.878;4.584;2023-04-05T04:01:35;9.10;56.70
37782;DHT22;23621;50.878;4.584;2023-04-05T04:04:02;9.10;56.80
37782;DHT22;23621;50.878;4.584;2023-04-05T04:06:31;9.10;56.80
37782;DHT22;23621;50.878;4.584;2023-04-05T04:08:58;9.10;56.80
37782;DHT22;23621;50.878;4.584;2023-04-05T04:11:25;9.10;56.80
37782;DHT22;23621;50.878;4.584;2023-04-05T04:20:05;9.00;56.90
37782;DHT22;23621;50.878;4.584;2023-04-05T04:22:37;9.00;57.20
37782;DHT22;23621;50.878;4.584;2023-04-05T04:25:10;9.00;57.10
37782;DHT22;23621;50.878;4.584;2023-04-05T04:27:40;9.00;57.10
37782;DHT22;23621;50.878;4.584;2023-04-05T04:30:18;9.00;57.10
37782;DHT22;23621;50.878;4.584;2023-04-05T04:32:49;9.00;57.10
37782;DHT22;23621;50.878;4.584;2023-04-05T04:35:25;9.00;57.20
37782;DHT22;23621;50.878;4.584;2023-04-05T04:37:55;9.00;57.20
37782;DHT22;23621;50.878;4.584;2023-04-05T04:40:28;9.00;57.20
37782;DHT22;23621;50.878;4.584;2023-04-05T04:42:58;8.90;57.10
37782;DHT22;23621;50.878;4.584;2023-04-05T04:45:26;8.90;57.20
37782;DHT22;23621;50.878;4.584;2023-04-05T04:47:53;8.90;57.30
37782;DHT22;23621;50.878;4.584;2023-04-05T04:50:30;8.90;57.30
37782;DHT22;23621;50.878;4.584;2023-04-05T04:52:58;8.90;57.40
37782;DHT22;23621;50.878;4.584;2023-04-05T04:55:29;8.90;57.40
37782;DHT22;23621;50.878;4.584;2023-04-05T04:57:56;8.90;57.50
37782;DHT22;23621;50.878;4.584;2023-04-05T05:00:23;8.90;57.50
37782;DHT22;23621;50.878;4.584;2023-04-05T05:02:52;8.90;57.40
37782;DHT22;23621;50.878;4.584;2023-04-05T05:05:19;8.90;57.50
37782;DHT22;23621;50.878;4.584;2023-04-05T05:07:49;8.80;57.40
37782;DHT22;23621;50.878;4.584;2023-04-05T05:10:19;8.80;57.40
37782;DHT22;23621;50.878;4.584;2023-04-05T05:12:47;8.80;57.40
37782;DHT22;23621;50.878;4.584;2023-04-05T05:15:14;8.80;57.40
37782;DHT22;23621;50.878;4.584;2023-04-05T05:17:41;8.80;57.40
37782;DHT22;23621;50.878;4.584;2023-04-05T05:20:11;8.70;57.50
37782;DHT22;23621;50.878;4.584;2023-04-05T05:22:39;8.70;57.50
37782;DHT22;23621;50.878;4.584;2023-04-05T05:25:08;8.70;57.50
37782;DHT22;23621;50.878;4.584;2023-04-05T05:27:35;8.70;57.50
37782;DHT22;23621;50.878;4.584;2023-04-05T05:30:03;8.70;57.60
37782;DHT22;23621;50.878;4.584;2023-04-05T05:32:31;8.60;57.60
37782;DHT22;23621;50.878;4.584;2023-04-05T05:35:01;8.60;57.60
37782;DHT22;23621;50.878;4.584;2023-04-05T05:37:30;8.60;57.60
37782;DHT22;23621;50.878;4.584;2023-04-05T05:44:07;8.70;57.90
37782;DHT22;23621;50.878;4.584;2023-04-05T05:46:34;8.70;57.80
37782;DHT22;23621;50.878;4.584;2023-04-05T05:49:04;8.70;57.80
37782;DHT22;23621;50.878;4.584;2023-04-05T05:51:34;8.80;57.90
37782;DHT22;23621;50.878;4.584;2023-04-05T05:54:02;8.80;57.90
37782;DHT22;23621;50.878;4.584;2023-04-05T05:56:30;8.80;57.90
37782;DHT22;23621;50.878;4.584;2023-04-05T05:59:00;8.80;58.00
37782;DHT22;23621;50.878;4.584;2023-04-05T06:01:27;8.80;58.00
37782;DHT22;23621;50.878;4.584;2023-04-05T06:04:03;8.90;58.10
37782;DHT22;23621;50.878;4.584;2023-04-05T06:06:31;8.80;58.10
37782;DHT22;23621;50.878;4.584;2023-04-05T06:09:02;8.90;58.20
37782;DHT22;23621;50.878;4.584;2023-04-05T06:11:32;9.00;58.40
37782;DHT22;23621;50.878;4.584;2023-04-05T06:14:02;9.00;58.40
37782;DHT22;23621;50.878;4.584;2023-04-05T06:16:32;9.00;58.50
37782;DHT22;23621;50.878;4.584;2023-04-05T06:19:01;9.10;58.60
37782;DHT22;23621;50.878;4.584;2023-04-05T06:21:28;9.10;58.60
37782;DHT22;23621;50.878;4.584;2023-04-05T06:23:55;9.20;58.70
37782;DHT22;23621;50.878;4.584;2023-04-05T06:26:23;9.20;58.70
37782;DHT22;23621;50.878;4.584;2023-04-05T06:28:53;9.30;58.80
37782;DHT22;23621;50.878;4.584;2023-04-05T06:31:31;9.30;58.80
37782;DHT22;23621;50.878;4.584;2023-04-05T06:33:58;9.40;59.00
37782;DHT22;23621;50.878;4.584;2023-04-05T06:36:26;9.40;58.90
37782;DHT22;23621;50.878;4.584;2023-04-05T06:38:53;9.50;58.80
37782;DHT22;23621;50.878;4.584;2023-04-05T06:41:21;9.60;58.90
37782;DHT22;23621;50.878;4.584;2023-04-05T06:43:48;9.60;58.90
37782;DHT22;23621;50.878;4.584;2023-04-05T06:46:15;9.60;58.80
37782;DHT22;23621;50.878;4.584;2023-04-05T06:48:43;9.70;58.90
37782;DHT22;23621;50.878;4.584;2023-04-05T06:51:10;9.70;58.90
37782;DHT22;23621;50.878;4.584;2023-04-05T06:53:36;9.80;59.00
37782;DHT22;23621;50.878;4.584;2023-04-05T06:56:04;9.80;59.00
37782;DHT22;23621;50.878;4.584;2023-04-05T06:58:30;9.90;59.10
37782;DHT22;23621;50.878;4.584;2023-04-05T07:00:59;9.90;59.10
37782;DHT22;23621;50.878;4.584;2023-04-05T07:03:27;10.00;58.30
37782;DHT22;23621;50.878;4.584;2023-04-05T07:06:00;10.00;58.40
37782;DHT22;23621;50.878;4.584;2023-04-05T07:08:43;10.10;58.30
37782;DHT22;23621;50.878;4.584;2023-04-05T07:11:12;10.10;58.30
37782;DHT22;23621;50.878;4.584;2023-04-05T07:13:39;10.20;58.40
37782;DHT22;23621;50.878;4.584;2023-04-05T07:16:06;10.20;58.20
37782;DHT22;23621;50.878;4.584;2023-04-05T07:18:33;10.30;58.20
37782;DHT22;23621;50.878;4.584;2023-04-05T07:21:00;10.30;58.10
37782;DHT22;23621;50.878;4.584;2023-04-05T07:23:28;10.30;58.00
37782;DHT22;23621;50.878;4.584;2023-04-05T07:26:00;10.40;58.20
37782;DHT22;23621;50.878;4.584;2023-04-05T07:28:32;10.40;58.10
37782;DHT22;23621;50.878;4.584;2023-04-05T07:31:02;10.50;58.10
37782;DHT22;23621;50.878;4.584;2023-04-05T07:33:30;10.50;57.90
37782;DHT22;23621;50.878;4.584;2023-04-05T07:35:57;10.60;57.80
37782;DHT22;23621;50.878;4.584;2023-04-05T07:38:25;10.70;57.80
37782;DHT22;23621;50.878;4.584;2023-04-05T07:40:58;10.70;57.80
37782;DHT22;23621;50.878;4.584;2023-04-05T07:43:25;10.80;57.80
37782;DHT22;23621;50.878;4.584;2023-04-05T07:45:59;10.80;57.60
37782;DHT22;23621;50.878;4.584;2023-04-05T07:48:26;10.90;57.50
37782;DHT22;23621;50.878;4.584;2023-04-05T07:51:02;11.00;57.40
37782;DHT22;23621;50.878;4.584;2023-04-05T07:53:29;11.00;57.20
37782;DHT22;23621;50.878;4.584;2023-04-05T07:55:57;11.10;57.20
37782;DHT22;23621;50.878;4.584;2023-04-05T07:58:25;11.10;57.00
37782;DHT22;23621;50.878;4.584;2023-04-05T08:00:52;11.20;57.00
37782;DHT22;23621;50.878;4.584;2023-04-05T08:03:19;11.30;57.00
37782;DHT22;23621;50.878;4.584;2023-04-05T08:05:50;11.30;56.90
37782;DHT22;23621;50.878;4.584;2023-04-05T08:08:19;11.40;57.10
37782;DHT22;23621;50.878;4.584;2023-04-05T08:10:46;11.40;57.20
37782;DHT22;23621;50.878;4.584;2023-04-05T08:13:13;11.50;57.40
37782;DHT22;23621;50.878;4.584;2023-04-05T08:15:40;11.60;57.50
37782;DHT22;23621;50.878;4.584;2023-04-05T08:18:07;11.60;57.30
37782;DHT22;23621;50.878;4.584;2023-04-05T08:20:37;11.70;57.20
37782;DHT22;23621;50.878;4.584;2023-04-05T08:23:05;11.80;57.20
37782;DHT22;23621;50.878;4.584;2023-04-05T08:25:32;11.80;57.10
37782;DHT22;23621;50.878;4.584;2023-04-05T08:27:59;11.90;56.50
37782;DHT22;23621;50.878;4.584;2023-04-05T08:30:26;12.00;56.00
37782;DHT22;23621;50.878;4.584;2023-04-05T08:32:53;12.00;55.60
37782;DHT22;23621;50.878;4.584;2023-04-05T08:35:20;12.10;55.00
37782;DHT22;23621;50.878;4.584;2023-04-05T08:37:47;12.10;54.80
37782;DHT22;23621;50.878;4.584;2023-04-05T08:40:14;12.20;54.70
37782;DHT22;23621;50.878;4.584;2023-04-05T08:42:45;12.20;54.30
37782;DHT22;23621;50.878;4.584;2023-04-05T08:45:17;12.30;54.10
37782;DHT22;23621;50.878;4.584;2023-04-05T08:47:45;12.40;54.00
37782;DHT22;23621;50.878;4.584;2023-04-05T08:50:14;12.40;53.70
37782;DHT22;23621;50.878;4.584;2023-04-05T08:52:44;12.40;53.70
37782;DHT22;23621;50.878;4.584;2023-04-05T08:55:15;12.50;53.60
37782;DHT22;23621;50.878;4.584;2023-04-05T08:57:49;12.60;53.20
37782;DHT22;23621;50.878;4.584;2023-04-05T09:00:18;12.70;52.40
37782;DHT22;23621;50.878;4.584;2023-04-05T09:02:51;12.70;51.70
37782;DHT22;23621;50.878;4.584;2023-04-05T09:05:22;12.80;51.30
37782;DHT22;23621;50.878;4.584;2023-04-05T09:07:50;12.90;51.10
37782;DHT22;23621;50.878;4.584;2023-04-05T09:10:20;12.90;50.60
37782;DHT22;23621;50.878;4.584;2023-04-05T09:12:48;13.00;49.80
37782;DHT22;23621;50.878;4.584;2023-04-05T09:15:19;13.00;48.50
37782;DHT22;23621;50.878;4.584;2023-04-05T09:17:50;13.10;49.00
37782;DHT22;23621;50.878;4.584;2023-04-05T09:20:18;13.10;48.50
37782;DHT22;23621;50.878;4.584;2023-04-05T09:22:45;13.20;49.30
37782;DHT22;23621;50.878;4.584;2023-04-05T09:25:36;13.20;49.40
37782;DHT22;23621;50.878;4.584;2023-04-05T09:28:06;13.30;49.10
37782;DHT22;23621;50.878;4.584;2023-04-05T09:30:33;13.40;49.10
37782;DHT22;23621;50.878;4.584;2023-04-05T09:33:03;13.40;49.10
37782;DHT22;23621;50.878;4.584;2023-04-05T09:35:35;13.50;48.90
37782;DHT22;23621;50.878;4.584;2023-04-05T09:38:03;13.50;48.20
37782;DHT22;23621;50.878;4.584;2023-04-05T09:40:46;13.50;48.40
37782;DHT22;23621;50.878;4.584;2023-04-05T09:43:40;13.60;48.20
37782;DHT22;23621;50.878;4.584;2023-04-05T09:46:32;13.70;48.20
37782;DHT22;23621;50.878;4.584;2023-04-05T09:49:00;13.70;48.80
37782;DHT22;23621;50.878;4.584;2023-04-05T09:51:35;13.70;48.70
37782;DHT22;23621;50.878;4.584;2023-04-05T09:54:07;13.70;48.50
37782;DHT22;23621;50.878;4.584;2023-04-05T09:56:39;13.80;48.50
37782;DHT22;23621;50.878;4.584;2023-04-05T09:59:08;13.80;48.30
37782;DHT22;23621;50.878;4.584;2023-04-05T10:01:38;13.90;48.30
37782;DHT22;23621;50.878;4.584;2023-04-05T10:04:07;13.90;48.40
37782;DHT22;23621;50.878;4.584;2023-04-05T10:06:39;13.90;48.80
37782;DHT22;23621;50.878;4.584;2023-04-05T10:09:08;14.00;48.60
37782;DHT22;23621;50.878;4.584;2023-04-05T10:11:36;14.00;48.60
37782;DHT22;23621;50.878;4.584;2023-04-05T10:14:07;14.10;48.30
37782;DHT22;23621;50.878;4.584;2023-04-05T10:16:47;14.10;48.00
37782;DHT22;23621;50.878;4.584;2023-04-05T10:19:26;14.20;47.40
37782;DHT22;23621;50.878;4.584;2023-04-05T10:21:59;14.20;47.20
37782;DHT22;23621;50.878;4.584;2023-04-05T10:24:33;14.20;47.80
37782;DHT22;23621;50.878;4.584;2023-04-05T10:27:58;14.20;47.90
37782;DHT22;23621;50.878;4.584;2023-04-05T10:30:15;14.30;47.00
37782;DHT22;23621;50.878;4.584;2023-04-05T10:35:37;14.40;47.40
37782;DHT22;23621;50.878;4.584;2023-04-05T10:38:16;14.40;47.50
37782;DHT22;23621;50.878;4.584;2023-04-05T10:40:46;14.50;47.10
37782;DHT22;23621;50.878;4.584;2023-04-05T10:43:22;14.50;47.40
37782;DHT22;23621;50.878;4.584;2023-04-05T10:45:53;14.50;47.30
37782;DHT22;23621;50.878;4.584;2023-04-05T10:51:18;14.60;46.70
37782;DHT22;23621;50.878;4.584;2023-04-05T10:53:46;14.60;46.40
37782;DHT22;23621;50.878;4.584;2023-04-05T10:56:16;14.70;46.30
37782;DHT22;23621;50.878;4.584;2023-04-05T10:58:45;14.70;47.00
37782;DHT22;23621;50.878;4.584;2023-04-05T11:01:13;14.80;47.40
37782;DHT22;23621;50.878;4.584;2023-04-05T11:03:52;14.80;47.30
37782;DHT22;23621;50.878;4.584;2023-04-05T11:09:19;14.90;46.40
37782;DHT22;23621;50.878;4.584;2023-04-05T11:11:51;15.00;46.70
37782;DHT22;23621;50.878;4.584;2023-04-05T11:14:33;15.10;46.50
37782;DHT22;23621;50.878;4.584;2023-04-05T11:17:01;15.10;46.70
37782;DHT22;23621;50.878;4.584;2023-04-05T11:19:48;15.10;46.40
37782;DHT22;23621;50.878;4.584;2023-04-05T11:22:26;15.20;46.10
37782;DHT22;23621;50.878;4.584;2023-04-05T11:25:02;15.20;46.20
37782;DHT22;23621;50.878;4.584;2023-04-05T11:27:34;15.30;46.30
37782;DHT22;23621;50.878;4.584;2023-04-05T11:30:07;15.30;46.00
37782;DHT22;23621;50.878;4.584;2023-04-05T11:32:52;15.30;46.50
37782;DHT22;23621;50.878;4.584;2023-04-05T11:35:19;15.40;47.80
37782;DHT22;23621;50.878;4.584;2023-04-05T11:40:33;15.60;48.30
37782;DHT22;23621;50.878;4.584;2023-04-05T11:45:32;15.70;48.20
37782;DHT22;23621;50.878;4.584;2023-04-05T11:48:18;15.80;48.60
37782;DHT22;23621;50.878;4.584;2023-04-05T11:50:49;15.90;48.00
37782;DHT22;23621;50.878;4.584;2023-04-05T11:53:17;15.90;46.70
37782;DHT22;23621;50.878;4.584;2023-04-05T11:55:46;15.80;45.20
37782;DHT22;23621;50.878;4.584;2023-04-05T11:58:18;15.90;45.60
37782;DHT22;23621;50.878;4.584;2023-04-05T12:00:57;16.00;46.30
37782;DHT22;23621;50.878;4.584;2023-04-05T12:03:26;16.00;45.50
37782;DHT22;23621;50.878;4.584;2023-04-05T12:06:01;16.10;46.10
37782;DHT22;23621;50.878;4.584;2023-04-05T12:08:48;16.10;47.10
37782;DHT22;23621;50.878;4.584;2023-04-05T12:11:26;16.20;46.60
37782;DHT22;23621;50.878;4.584;2023-04-05T12:14:03;16.20;46.30
37782;DHT22;23621;50.878;4.584;2023-04-05T12:16:29;16.30;47.40
37782;DHT22;23621;50.878;4.584;2023-04-05T12:18:58;16.30;46.90
37782;DHT22;23621;50.878;4.584;2023-04-05T12:21:26;16.30;47.30
37782;DHT22;23621;50.878;4.584;2023-04-05T12:23:54;16.40;46.60
37782;DHT22;23621;50.878;4.584;2023-04-05T12:26:21;16.40;46.10
37782;DHT22;23621;50.878;4.584;2023-04-05T12:28:51;16.40;45.70
37782;DHT22;23621;50.878;4.584;2023-04-05T12:31:54;16.40;44.50
37782;DHT22;23621;50.878;4.584;2023-04-05T12:34:23;16.40;43.50
37782;DHT22;23621;50.878;4.584;2023-04-05T12:36:53;16.40;44.50
37782;DHT22;23621;50.878;4.584;2023-04-05T12:39:20;16.40;44.40
37782;DHT22;23621;50.878;4.584;2023-04-05T12:41:58;16.50;44.30
37782;DHT22;23621;50.878;4.584;2023-04-05T12:44:29;16.60;43.70
37782;DHT22;23621;50.878;4.584;2023-04-05T12:47:00;16.60;44.10
37782;DHT22;23621;50.878;4.584;2023-04-05T12:49:33;16.60;44.10
37782;DHT22;23621;50.878;4.584;2023-04-05T12:52:01;16.60;43.60
37782;DHT22;23621;50.878;4.584;2023-04-05T12:54:28;16.60;43.40
37782;DHT22;23621;50.878;4.584;2023-04-05T12:56:57;16.60;43.10
37782;DHT22;23621;50.878;4.584;2023-04-05T12:59:24;16.60;43.10
37782;DHT22;23621;50.878;4.584;2023-04-05T13:01:51;16.70;43.50
37782;DHT22;23621;50.878;4.584;2023-04-05T13:04:18;16.70;43.80
37782;DHT22;23621;50.878;4.584;2023-04-05T13:06:45;16.70;43.70
37782;DHT22;23621;50.878;4.584;2023-04-05T13:09:13;16.70;42.80
37782;DHT22;23621;50.878;4.584;2023-04-05T13:11:40;16.80;42.90
37782;DHT22;23621;50.878;4.584;2023-04-05T13:14:07;16.80;42.90
37782;DHT22;23621;50.878;4.584;2023-04-05T13:16:35;16.80;42.20
37782;DHT22;23621;50.878;4.584;2023-04-05T13:19:02;16.90;42.70
37782;DHT22;23621;50.878;4.584;2023-04-05T13:21:29;17.00;43.30
37782;DHT22;23621;50.878;4.584;2023-04-05T13:23:56;17.10;43.90
37782;DHT22;23621;50.878;4.584;2023-04-05T13:26:23;17.10;43.30
37782;DHT22;23621;50.878;4.584;2023-04-05T13:28:50;17.10;42.40
37782;DHT22;23621;50.878;4.584;2023-04-05T13:31:17;17.20;42.30
37782;DHT22;23621;50.878;4.584;2023-04-05T13:33:44;17.20;42.80
37782;DHT22;23621;50.878;4.584;2023-04-05T13:36:11;17.30;43.40
37782;DHT22;23621;50.878;4.584;2023-04-05T13:38:38;17.30;43.20
37782;DHT22;23621;50.878;4.584;2023-04-05T13:41:06;17.30;42.50
37782;DHT22;23621;50.878;4.584;2023-04-05T13:43:33;17.30;42.00
37782;DHT22;23621;50.878;4.584;2023-04-05T13:46:00;17.40;42.80
37782;DHT22;23621;50.878;4.584;2023-04-05T13:48:26;17.40;42.40
37782;DHT22;23621;50.878;4.584;2023-04-05T13:50:53;17.40;42.30
37782;DHT22;23621;50.878;4.584;2023-04-05T13:53:21;17.40;42.10
37782;DHT22;23621;50.878;4.584;2023-04-05T13:55:48;17.40;42.10
37782;DHT22;23621;50.878;4.584;2023-04-05T13:58:15;17.40;41.90
37782;DHT22;23621;50.878;4.584;2023-04-05T14:00:42;17.50;41.70
37782;DHT22;23621;50.878;4.584;2023-04-05T14:03:09;17.50;41.70
37782;DHT22;23621;50.878;4.584;2023-04-05T14:05:36;17.50;41.20
37782;DHT22;23621;50.878;4.584;2023-04-05T14:08:03;17.50;40.50
